Abegondo, Spain
Current Conditions -  °F | °C
As of 5:00 PM on Friday 28 Nov 2014 (Local Time) from LECO Reporting Station
Broken Clouds Broken Clouds  
Wind Chill: 11°   Ceiling: 4500
Heat Index: 11°   Visibility: 6mi
Dew Point: 10°   Wind: 5mph
Humidity: 94%   Direction: 100°E
Pressure: 29.12"   Gusts: NA
Location:  43.22°N, 8.28°W
Report Text: LECO 281600Z 10004KT 030V120 9999 FEW015 SCT025 BKN045 11/10 Q0986 NOSIG
Loading
Personal Weather Stations






























Interactive Weather Map New forecast layout! Learn more

10-Day Weather Forecast

Advertisements
Track Severe Weather on mobile